Time;durP1;ratioP1;P1;durP2;ratioP2;P2;SDS_P1;SDS_P2;PMS_P1;PMS_P2;Temp;Humidity;BMP_temperature;BMP_pressure;BME280_temperature;BME280_humidity;BME280_pressure;Samples;Min_cycle;Max_cycle;Signal;HPM_P1;HPM_P2
2022/08/15 20:57:21;;;;;;;11.60;10.25;;;22.60;99.90;;;;;;5048929;27;20426;-72
2022/08/15 20:59:50;;;;;;;15.60;11.55;;;22.30;99.90;;;;;;5043577;28;20382;-75
2022/08/15 21:02:38;;;;;;;14.35;10.60;;;22.20;99.90;;;;;;5057447;28;20075;-76
2022/08/15 21:05:17;;;;;;;13.88;11.90;;;22.20;99.90;;;;;;5039208;28;20057;-75
2022/08/15 21:07:53;;;;;;;13.35;11.98;;;22.20;99.90;;;;;;5024691;28;20124;-75
2022/08/15 21:10:25;;;;;;;14.90;11.90;;;22.10;99.90;;;;;;5050816;28;20095;-75
2022/08/15 21:13:07;;;;;;;13.20;11.80;;;22.10;99.90;;;;;;5041151;28;20048;-76
2022/08/15 21:15:58;;;;;;;13.18;11.80;;;22.10;99.90;;;;;;5051406;28;20063;-76
2022/08/15 21:18:47;;;;;;;12.57;10.40;;;22.00;99.90;;;;;;5021581;28;20041;-75
2022/08/15 21:21:19;;;;;;;11.52;10.38;;;22.00;99.90;;;;;;5020842;28;20290;-74
2022/08/15 21:23:59;;;;;;;10.82;9.77;;;21.90;99.90;;;;;;5019353;28;20049;-75
2022/08/15 21:26:36;;;;;;;15.48;10.85;;;21.90;99.90;;;;;;5027467;28;20072;-75
2022/08/15 21:29:17;;;;;;;10.63;9.57;;;21.90;99.90;;;;;;5030789;28;20110;-76
2022/08/15 21:32:04;;;;;;;13.38;11.98;;;21.90;99.90;;;;;;5019505;28;20064;-75
2022/08/15 21:34:33;;;;;;;12.20;10.95;;;21.90;99.90;;;;;;5062763;28;20052;-76
2022/08/15 21:37:22;;;;;;;11.98;10.88;;;21.90;99.90;;;;;;5018088;28;20045;-75
2022/08/15 21:40:00;;;;;;;12.55;11.38;;;21.80;99.90;;;;;;5039883;28;20100;-75
2022/08/15 21:42:26;;;;;;;13.45;12.10;;;21.80;99.90;;;;;;5021531;28;20125;-75
2022/08/15 21:45:01;;;;;;;13.32;12.00;;;21.80;99.90;;;;;;5037284;28;20096;-75
2022/08/15 21:47:39;;;;;;;12.90;11.77;;;21.80;99.90;;;;;;5019258;28;20055;-75
2022/08/15 21:50:08;;;;;;;12.93;11.75;;;21.90;99.90;;;;;;5034861;28;20118;-75
2022/08/15 21:52:37;;;;;;;14.55;13.07;;;21.80;99.90;;;;;;5029137;28;20060;-75
2022/08/15 21:55:12;;;;;;;14.10;12.90;;;21.80;99.90;;;;;;5024143;28;20052;-74
2022/08/15 21:58:01;;;;;;;14.20;13.07;;;21.90;99.90;;;;;;5060302;28;20049;-75
2022/08/15 22:00:40;;;;;;;13.77;12.48;;;21.80;99.90;;;;;;5036597;28;20051;-75
2022/08/15 22:03:28;;;;;;;13.77;12.35;;;21.80;99.90;;;;;;5037102;28;20072;-75
2022/08/15 22:06:00;;;;;;;13.60;12.35;;;21.90;99.90;;;;;;5037104;28;20051;-76
2022/08/15 22:08:33;;;;;;;12.80;11.50;;;21.90;99.90;;;;;;5034946;28;20497;-73
2022/08/15 22:11:22;;;;;;;13.73;11.25;;;21.80;99.90;;;;;;5019369;28;20041;-75
2022/08/15 22:13:52;;;;;;;12.23;11.13;;;21.80;99.90;;;;;;5011363;28;20045;-74
2022/08/15 22:16:19;;;;;;;13.15;12.00;;;21.70;99.90;;;;;;5034172;28;20371;-75
2022/08/15 22:18:45;;;;;;;13.25;12.05;;;21.70;99.90;;;;;;5040042;28;20044;-75
2022/08/15 22:21:16;;;;;;;14.88;13.50;;;21.60;99.90;;;;;;4990013;28;20118;-77
2022/08/15 22:23:44;;;;;;;15.07;13.57;;;21.60;99.90;;;;;;5035607;28;20048;-74
2022/08/15 22:26:13;;;;;;;15.82;14.23;;;21.50;99.90;;;;;;4987835;28;20045;-75
2022/08/15 22:28:40;;;;;;;16.13;14.18;;;21.50;99.90;;;;;;5018458;28;20041;-75
2022/08/15 22:31:08;;;;;;;14.95;13.57;;;21.50;99.90;;;;;;4991292;28;20547;-76
2022/08/15 22:33:35;;;;;;;15.07;13.77;;;21.50;99.90;;;;;;5006558;28;20507;-76
2022/08/15 22:36:06;;;;;;;18.33;13.85;;;21.40;99.90;;;;;;5005620;28;20095;-76
2022/08/15 22:38:36;;;;;;;14.75;13.35;;;21.40;99.90;;;;;;5017341;28;20057;-76
2022/08/15 22:41:07;;;;;;;14.05;12.75;;;21.40;99.90;;;;;;5019200;28;20131;-75
2022/08/15 22:43:36;;;;;;;15.95;14.43;;;21.40;99.90;;;;;;5012701;28;20514;-75
2022/08/15 22:46:37;;;;;;;17.27;15.77;;;21.30;99.90;;;;;;5033827;28;20052;-75
2022/08/15 22:49:04;;;;;;;16.70;15.02;;;21.30;99.90;;;;;;5021248;28;20045;-75
2022/08/15 22:51:39;;;;;;;18.20;16.58;;;21.30;99.90;;;;;;5005942;28;20159;-75
2022/08/15 22:54:07;;;;;;;17.45;15.65;;;21.20;99.90;;;;;;5013964;28;20045;-75
2022/08/15 22:56:35;;;;;;;17.58;16.15;;;21.20;99.90;;;;;;4987422;28;20053;-76
2022/08/15 22:59:05;;;;;;;18.88;17.10;;;21.20;99.90;;;;;;5009318;28;20048;-75
2022/08/15 23:01:43;;;;;;;19.80;18.02;;;21.10;99.90;;;;;;5016324;28;20769;-75
2022/08/15 23:04:17;;;;;;;19.50;17.65;;;21.10;99.90;;;;;;5012323;28;20488;-75
2022/08/15 23:06:55;;;;;;;20.65;18.75;;;21.10;99.90;;;;;;5021364;28;20086;-75
2022/08/15 23:09:24;;;;;;;19.83;18.23;;;21.10;99.90;;;;;;5016546;28;20446;-75
2022/08/15 23:11:54;;;;;;;20.42;18.52;;;21.10;99.90;;;;;;5020247;28;20098;-75
2022/08/15 23:14:28;;;;;;;20.95;19.00;;;21.00;99.90;;;;;;4997956;28;20049;-75
2022/08/15 23:17:12;;;;;;;20.35;18.45;;;21.00;99.90;;;;;;5027976;28;20053;-75
2022/08/15 23:20:30;;;;;;;20.02;18.23;;;21.00;99.90;;;;;;5033339;28;20124;-76
2022/08/15 23:23:00;;;;;;;21.05;19.05;;;21.00;99.90;;;;;;5010253;28;20041;-75
2022/08/15 23:25:28;;;;;;;19.67;18.10;;;21.00;99.90;;;;;;5011768;28;20080;-76
2022/08/15 23:27:54;;;;;;;19.88;18.10;;;21.00;99.90;;;;;;5019234;28;20060;-76
2022/08/15 23:30:28;;;;;;;20.33;18.45;;;21.00;99.90;;;;;;5034525;28;20063;-75
2022/08/15 23:32:59;;;;;;;20.40;18.75;;;21.00;99.90;;;;;;5017562;28;20044;-75
2022/08/15 23:35:27;;;;;;;20.83;18.98;;;21.00;99.90;;;;;;5003663;28;20045;-75
2022/08/15 23:37:56;;;;;;;20.90;19.00;;;21.00;99.90;;;;;;5030331;28;20036;-76
2022/08/15 23:40:45;;;;;;;19.42;17.77;;;20.90;99.90;;;;;;5037284;28;20045;-75
2022/08/15 23:43:11;;;;;;;20.65;18.55;;;21.10;99.90;;;;;;5017326;28;20040;-76
2022/08/15 23:45:41;;;;;;;20.30;18.35;;;21.00;99.90;;;;;;4996659;28;20036;-75
2022/08/15 23:48:09;;;;;;;20.80;18.90;;;21.00;99.90;;;;;;5018784;28;20056;-75
2022/08/15 23:50:36;;;;;;;21.17;19.27;;;21.00;99.90;;;;;;5034746;28;20095;-76
2022/08/15 23:53:05;;;;;;;21.00;19.23;;;21.10;99.90;;;;;;4981544;28;20811;-76
2022/08/15 23:55:37;;;;;;;22.42;20.48;;;21.10;99.90;;;;;;5017935;28;20144;-77
2022/08/15 23:58:07;;;;;;;20.48;18.70;;;21.10;99.90;;;;;;5000705;28;20049;-75
